createdAt,value
2022-08-12T00:00:10.328Z,24.30
2022-08-12T00:02:56.425Z,24.30
2022-08-12T00:06:00.468Z,24.30
2022-08-12T00:08:48.736Z,24.20
2022-08-12T00:11:34.642Z,24.20
2022-08-12T00:14:22.031Z,24.20
2022-08-12T00:17:08.104Z,24.20
2022-08-12T00:19:54.282Z,24.10
2022-08-12T00:22:40.158Z,24.10
2022-08-12T00:26:05.661Z,24.00
2022-08-12T00:28:32.041Z,24.00
2022-08-12T00:31:19.810Z,24.00
2022-08-12T00:34:05.565Z,23.90
2022-08-12T00:36:51.672Z,23.90
2022-08-12T00:39:37.658Z,23.80
2022-08-12T00:42:11.556Z,23.80
2022-08-12T00:44:42.426Z,23.80
2022-08-12T00:47:24.480Z,23.80
2022-08-12T00:49:54.588Z,23.80
2022-08-12T00:52:23.794Z,23.70
2022-08-12T00:54:54.340Z,23.70
2022-08-12T00:57:24.454Z,23.70
2022-08-12T00:59:54.527Z,23.70
2022-08-12T01:02:26.542Z,23.60
2022-08-12T01:05:13.911Z,23.60
2022-08-12T01:08:00.645Z,23.60
2022-08-12T01:10:51.306Z,23.50
2022-08-12T01:13:20.631Z,23.50
2022-08-12T01:15:51.391Z,23.40
2022-08-12T01:18:21.432Z,23.40
2022-08-12T01:20:57.408Z,23.40
2022-08-12T01:23:58.010Z,23.40
2022-08-12T01:26:27.793Z,23.40
2022-08-12T01:28:58.994Z,23.30
2022-08-12T01:31:29.351Z,23.20
2022-08-12T01:34:35.735Z,23.20
2022-08-12T01:36:58.652Z,23.10
2022-08-12T01:39:32.166Z,23.10
2022-08-12T01:42:07.028Z,23.10
2022-08-12T01:44:37.165Z,23.00
2022-08-12T01:47:19.185Z,23.00
2022-08-12T01:50:08.847Z,23.00
2022-08-12T01:52:49.506Z,23.00
2022-08-12T01:55:21.348Z,22.90
2022-08-12T01:58:01.382Z,22.90
2022-08-12T02:00:55.174Z,22.90
2022-08-12T02:03:54.492Z,22.90
2022-08-12T02:06:48.113Z,22.80
2022-08-12T02:09:39.664Z,22.70
2022-08-12T02:12:27.684Z,22.70
2022-08-12T02:15:13.188Z,22.70
2022-08-12T02:17:55.652Z,22.60
2022-08-12T02:20:51.175Z,22.60
2022-08-12T02:23:25.576Z,22.50
2022-08-12T02:25:57.306Z,22.50
2022-08-12T02:28:26.090Z,22.50
2022-08-12T02:30:56.240Z,22.50
2022-08-12T02:33:25.514Z,22.50
2022-08-12T02:35:55.490Z,22.50
2022-08-12T02:38:27.335Z,22.40
2022-08-12T02:40:56.985Z,22.40
2022-08-12T02:43:30.445Z,22.30
2022-08-12T02:46:04.613Z,22.30
2022-08-12T02:48:36.564Z,22.30
2022-08-12T02:51:07.067Z,22.30
2022-08-12T02:53:37.233Z,22.20
2022-08-12T02:56:06.972Z,22.10
2022-08-12T02:58:36.487Z,22.20
2022-08-12T03:01:11.258Z,22.10
2022-08-12T03:03:41.463Z,22.10
2022-08-12T03:06:15.872Z,22.10
2022-08-12T03:08:53.599Z,22.10
2022-08-12T03:11:26.641Z,22.10
2022-08-12T03:14:01.231Z,22.00
2022-08-12T03:16:33.738Z,22.00
2022-08-12T03:19:05.136Z,22.00
2022-08-12T03:21:55.462Z,22.00
2022-08-12T03:24:27.304Z,22.00
2022-08-12T03:27:00.335Z,21.90
2022-08-12T03:29:43.285Z,21.90
2022-08-12T03:32:35.207Z,22.00
2022-08-12T03:35:07.343Z,21.90
2022-08-12T03:37:36.613Z,21.80
2022-08-12T03:40:05.464Z,21.80
2022-08-12T03:42:38.827Z,21.80
2022-08-12T03:45:35.134Z,21.80
2022-08-12T03:48:37.482Z,21.80
2022-08-12T03:51:23.814Z,21.70
2022-08-12T03:54:11.912Z,21.70
2022-08-12T03:56:58.067Z,21.70
2022-08-12T03:59:43.890Z,21.70
2022-08-12T04:02:15.543Z,21.60
2022-08-12T04:04:46.761Z,21.60
2022-08-12T04:07:16.393Z,21.60
2022-08-12T04:09:46.157Z,21.60
2022-08-12T04:12:33.001Z,21.60
2022-08-12T04:15:03.095Z,21.60
2022-08-12T04:17:32.305Z,21.60
2022-08-12T04:20:02.190Z,21.60
2022-08-12T04:22:31.125Z,21.50
2022-08-12T04:25:01.963Z,21.50
2022-08-12T04:27:32.124Z,21.60
2022-08-12T04:30:29.581Z,21.50
2022-08-12T04:32:52.351Z,21.50
2022-08-12T04:35:23.410Z,21.50
2022-08-12T04:37:58.184Z,21.50
2022-08-12T04:40:30.988Z,21.40
2022-08-12T04:43:01.224Z,21.50
2022-08-12T04:45:30.170Z,21.50
2022-08-12T04:47:58.540Z,21.50
2022-08-12T04:50:35.664Z,21.50
2022-08-12T04:53:05.863Z,21.50
2022-08-12T04:55:35.658Z,21.50
2022-08-12T04:58:03.821Z,21.50
2022-08-12T05:00:31.956Z,21.50
2022-08-12T05:03:00.303Z,21.50
2022-08-12T05:05:35.692Z,21.50
2022-08-12T05:08:07.685Z,21.50
2022-08-12T05:10:36.152Z,21.50
2022-08-12T05:13:08.496Z,21.50
2022-08-12T05:16:02.489Z,21.50
2022-08-12T05:18:29.033Z,21.50
2022-08-12T05:20:59.825Z,21.50
2022-08-12T05:23:29.518Z,21.50
2022-08-12T05:25:57.723Z,21.50
2022-08-12T05:28:27.737Z,21.50
2022-08-12T05:30:57.166Z,21.50
2022-08-12T05:33:26.549Z,21.50
2022-08-12T05:35:54.671Z,21.50
2022-08-12T05:38:41.704Z,21.50
2022-08-12T05:41:19.137Z,21.60
2022-08-12T05:43:48.797Z,21.60
2022-08-12T05:46:19.923Z,21.60
2022-08-12T05:48:51.882Z,21.70
2022-08-12T05:51:19.834Z,21.70
2022-08-12T05:53:49.342Z,21.70
2022-08-12T05:56:22.372Z,21.70
2022-08-12T05:58:52.595Z,21.80
2022-08-12T06:02:10.083Z,21.80
2022-08-12T06:04:09.869Z,21.80
2022-08-12T06:06:41.865Z,21.80
2022-08-12T06:09:12.603Z,21.90
2022-08-12T06:11:59.897Z,21.90
2022-08-12T06:14:31.728Z,22.00
2022-08-12T06:16:59.918Z,22.00
2022-08-12T06:20:27.330Z,22.00
2022-08-12T06:22:18.032Z,22.10
2022-08-12T06:24:48.505Z,22.10
2022-08-12T06:27:17.666Z,22.20
2022-08-12T06:30:09.343Z,22.20
2022-08-12T06:32:34.612Z,22.30
2022-08-12T06:35:26.844Z,22.30
2022-08-12T06:37:57.349Z,22.40
2022-08-12T06:40:45.144Z,22.40
2022-08-12T06:43:14.199Z,22.40
2022-08-12T06:45:49.615Z,22.40
2022-08-12T06:48:17.685Z,22.50
2022-08-12T06:50:46.069Z,22.60
2022-08-12T06:53:14.103Z,22.60
2022-08-12T06:55:57.959Z,22.70
2022-08-12T06:58:27.238Z,22.70
2022-08-12T07:00:58.143Z,22.70
2022-08-12T07:03:29.259Z,22.70
2022-08-12T07:05:59.804Z,22.80
2022-08-12T07:08:29.535Z,22.90
2022-08-12T07:11:01.855Z,22.90
2022-08-12T07:14:02.374Z,23.00
2022-08-12T07:16:47.296Z,23.10
2022-08-12T07:19:15.453Z,23.10
2022-08-12T07:22:02.374Z,23.20
2022-08-12T07:24:31.055Z,23.30
2022-08-12T07:27:02.955Z,23.40
2022-08-12T07:30:03.846Z,23.40
2022-08-12T07:32:20.271Z,23.50
2022-08-12T07:34:49.765Z,23.60
2022-08-12T07:37:17.789Z,23.70
2022-08-12T07:39:50.818Z,23.80
2022-08-12T07:42:31.176Z,23.80
2022-08-12T07:44:59.559Z,23.90
2022-08-12T07:47:27.950Z,24.00
2022-08-12T07:50:05.721Z,24.10
2022-08-12T07:52:35.431Z,24.20
2022-08-12T07:55:04.741Z,24.30
2022-08-12T07:57:48.869Z,24.30
2022-08-12T08:00:18.375Z,24.50
2022-08-12T08:02:46.759Z,24.50
2022-08-12T08:05:15.555Z,24.60
2022-08-12T08:07:43.570Z,24.70
2022-08-12T08:10:12.509Z,24.80
2022-08-12T08:12:58.837Z,24.90
2022-08-12T08:16:00.693Z,25.00
2022-08-12T08:18:26.049Z,25.10
2022-08-12T08:20:56.741Z,25.20
2022-08-12T08:23:46.948Z,25.20
2022-08-12T08:26:26.994Z,25.30
2022-08-12T08:28:56.957Z,25.40
2022-08-12T08:31:25.112Z,25.50
2022-08-12T08:34:09.022Z,25.60
2022-08-12T08:36:39.449Z,25.70
2022-08-12T08:39:08.368Z,25.80
2022-08-12T08:42:15.601Z,25.90
2022-08-12T08:44:45.021Z,25.90
2022-08-12T08:47:14.126Z,26.00
2022-08-12T08:49:42.470Z,26.10
2022-08-12T08:52:12.379Z,26.20
2022-08-12T08:54:40.686Z,26.30
2022-08-12T08:57:09.355Z,26.30
2022-08-12T08:59:37.742Z,26.40
2022-08-12T09:02:08.609Z,26.50
2022-08-12T09:05:11.779Z,26.50
2022-08-12T09:07:43.988Z,26.60
2022-08-12T09:10:30.753Z,26.70
2022-08-12T09:13:23.161Z,26.70
2022-08-12T09:18:42.464Z,26.90
2022-08-12T09:21:12.671Z,27.00
2022-08-12T09:23:59.127Z,27.10
2022-08-12T09:26:32.025Z,27.20
2022-08-12T09:29:12.295Z,27.20
2022-08-12T09:32:06.138Z,27.30
2022-08-12T09:34:36.309Z,27.40
2022-08-12T09:37:19.920Z,27.40
2022-08-12T09:40:05.067Z,27.50
2022-08-12T09:43:15.326Z,27.60
2022-08-12T09:46:06.799Z,27.70
2022-08-12T09:48:39.998Z,27.70
2022-08-12T09:51:21.566Z,27.80
2022-08-12T09:54:08.612Z,27.90
2022-08-12T09:57:02.905Z,28.00
2022-08-12T10:00:15.482Z,28.00
2022-08-12T10:02:45.788Z,28.10
2022-08-12T10:05:05.249Z,28.20
2022-08-12T10:07:39.689Z,28.30
2022-08-12T10:10:25.220Z,28.40
2022-08-12T10:13:34.832Z,28.50
2022-08-12T10:16:08.309Z,28.50
2022-08-12T10:18:53.864Z,28.50
2022-08-12T10:21:36.071Z,28.60
2022-08-12T10:24:09.144Z,28.60
2022-08-12T10:26:59.037Z,28.70
2022-08-12T10:30:03.670Z,28.70
2022-08-12T10:32:43.673Z,28.80
2022-08-12T10:35:16.039Z,28.90
2022-08-12T10:38:35.752Z,29.00
2022-08-12T10:40:56.588Z,29.10
2022-08-12T10:43:54.848Z,29.20
2022-08-12T10:46:30.922Z,29.30
2022-08-12T10:49:05.718Z,29.30
2022-08-12T10:52:32.507Z,29.40
2022-08-12T10:54:40.758Z,29.40
2022-08-12T10:57:18.287Z,29.50
2022-08-12T11:00:34.470Z,29.50
2022-08-12T11:04:22.960Z,29.60
2022-08-12T11:07:08.851Z,29.60
2022-08-12T11:08:42.027Z,29.70
2022-08-12T11:11:17.785Z,29.70
2022-08-12T11:14:13.139Z,29.80
2022-08-12T11:17:42.983Z,29.80
2022-08-12T11:19:46.595Z,29.90
2022-08-12T11:22:15.913Z,30.00
2022-08-12T11:24:51.761Z,30.00
2022-08-12T11:27:19.933Z,30.00
2022-08-12T11:30:02.101Z,30.10
2022-08-12T11:32:38.622Z,30.10
2022-08-12T11:35:08.555Z,30.10
2022-08-12T11:37:58.108Z,30.10
2022-08-12T11:40:28.663Z,30.20
2022-08-12T11:43:00.763Z,30.30
2022-08-12T11:45:47.507Z,30.40
2022-08-12T11:48:16.708Z,30.40
2022-08-12T11:50:47.032Z,30.50
2022-08-12T11:53:58.626Z,30.50
2022-08-12T11:56:06.525Z,30.60
2022-08-12T12:00:29.613Z,30.70
2022-08-12T12:02:00.957Z,30.70
2022-08-12T12:04:12.501Z,30.70
2022-08-12T12:07:07.368Z,30.70
2022-08-12T12:09:52.535Z,30.70
2022-08-12T12:12:22.960Z,30.80
2022-08-12T12:14:54.915Z,30.90
2022-08-12T12:17:25.342Z,30.90
2022-08-12T12:19:53.904Z,30.90
2022-08-12T12:22:27.242Z,30.90
2022-08-12T12:24:59.181Z,30.90
2022-08-12T12:28:03.969Z,30.90
2022-08-12T12:30:34.375Z,31.00
2022-08-12T12:33:04.210Z,31.00
2022-08-12T12:36:06.348Z,31.10
2022-08-12T12:38:25.210Z,31.10
2022-08-12T12:40:53.707Z,31.10
2022-08-12T12:43:29.019Z,31.10
2022-08-12T12:46:11.581Z,31.20
2022-08-12T12:48:44.482Z,31.30
2022-08-12T12:51:48.428Z,31.40
2022-08-12T12:54:09.937Z,31.40
2022-08-12T12:56:42.257Z,31.50
2022-08-12T12:59:54.971Z,31.50
2022-08-12T13:02:08.085Z,31.50
2022-08-12T13:04:38.423Z,31.60
2022-08-12T13:07:07.890Z,31.70
2022-08-12T13:09:36.851Z,31.70
2022-08-12T13:12:08.901Z,31.80
2022-08-12T13:14:39.913Z,31.80
2022-08-12T13:17:09.677Z,31.80
2022-08-12T13:19:44.501Z,31.80
2022-08-12T13:22:20.471Z,31.90
2022-08-12T13:24:52.157Z,32.00
2022-08-12T13:27:23.073Z,32.10
2022-08-12T13:30:01.995Z,32.10
2022-08-12T13:32:31.935Z,32.10
2022-08-12T13:35:04.542Z,32.20
2022-08-12T13:37:54.707Z,32.30
2022-08-12T13:40:24.983Z,32.30
2022-08-12T13:42:57.378Z,32.40
2022-08-12T13:45:25.691Z,32.50
2022-08-12T13:47:58.196Z,32.50
2022-08-12T13:50:33.910Z,32.50
2022-08-12T13:53:06.435Z,32.50
2022-08-12T13:55:59.823Z,32.50
2022-08-12T13:58:30.519Z,32.50
2022-08-12T14:01:00.925Z,32.50
2022-08-12T14:03:50.668Z,32.60
2022-08-12T14:06:21.031Z,32.60
2022-08-12T14:08:50.524Z,32.80
2022-08-12T14:11:25.390Z,32.90
2022-08-12T14:14:03.254Z,33.00
2022-08-12T14:16:52.204Z,33.00
2022-08-12T14:19:22.367Z,33.10
2022-08-12T14:22:00.670Z,33.20
2022-08-12T14:24:40.820Z,33.30
2022-08-12T14:27:11.016Z,33.40
2022-08-12T14:30:04.658Z,33.40
2022-08-12T14:32:34.924Z,33.50
2022-08-12T14:35:05.194Z,33.60
2022-08-12T14:37:55.974Z,33.60
2022-08-12T14:40:27.586Z,33.80
2022-08-12T14:42:56.994Z,33.80
2022-08-12T14:45:44.253Z,33.90
2022-08-12T14:48:15.120Z,34.00
2022-08-12T14:51:02.736Z,34.20
2022-08-12T14:59:56.381Z,34.70
2022-08-12T15:02:21.234Z,34.80
2022-08-12T15:04:59.205Z,35.00
2022-08-12T15:07:33.626Z,35.10
2022-08-12T15:10:31.778Z,35.20
2022-08-12T15:13:05.678Z,35.30
2022-08-12T15:15:43.476Z,35.30
2022-08-12T15:18:13.739Z,35.30
2022-08-12T15:20:42.310Z,35.40
2022-08-12T15:23:18.008Z,35.50
2022-08-12T15:25:59.689Z,35.70
2022-08-12T15:28:33.228Z,35.80
2022-08-12T15:31:02.435Z,35.80
2022-08-12T15:33:45.198Z,35.80
2022-08-12T15:36:19.375Z,35.70
2022-08-12T15:38:53.205Z,35.60
2022-08-12T15:41:27.673Z,35.60
2022-08-12T15:44:36.831Z,35.60
2022-08-12T15:47:03.671Z,35.50
2022-08-12T15:49:43.207Z,35.50
2022-08-12T15:52:27.420Z,35.40
2022-08-12T15:54:58.861Z,35.30
2022-08-12T15:57:28.630Z,35.30
2022-08-12T16:00:07.133Z,35.10
2022-08-12T16:02:49.470Z,35.00
2022-08-12T16:06:12.302Z,34.90
2022-08-12T16:08:17.223Z,34.90
2022-08-12T16:10:46.771Z,34.70
2022-08-12T16:13:25.177Z,34.70
2022-08-12T16:16:03.946Z,34.60
2022-08-12T16:18:40.489Z,34.60
2022-08-12T16:21:50.292Z,34.50
2022-08-12T16:24:01.936Z,34.30
2022-08-12T16:26:35.867Z,34.20
2022-08-12T16:29:15.087Z,34.10
2022-08-12T16:31:45.063Z,34.00
2022-08-12T16:34:25.737Z,33.90
2022-08-12T16:37:07.137Z,33.70
2022-08-12T16:40:00.958Z,33.60
2022-08-12T16:42:28.089Z,33.60
2022-08-12T16:44:59.517Z,33.50
2022-08-12T16:47:27.879Z,33.40
2022-08-12T16:49:57.789Z,33.40
2022-08-12T16:52:25.974Z,33.30
2022-08-12T16:54:56.546Z,33.20
2022-08-12T16:57:34.925Z,33.20
2022-08-12T17:00:07.323Z,33.10
2022-08-12T17:02:36.861Z,33.10
2022-08-12T17:05:07.055Z,33.00
2022-08-12T17:07:43.790Z,32.90
2022-08-12T17:10:35.464Z,32.90
2022-08-12T17:13:10.142Z,32.90
2022-08-12T17:15:56.711Z,32.80
2022-08-12T17:18:42.280Z,32.70
2022-08-12T17:21:19.971Z,32.70
2022-08-12T17:23:53.827Z,32.60
2022-08-12T17:26:28.142Z,32.60
2022-08-12T17:28:57.719Z,32.60
2022-08-12T17:31:59.693Z,32.50
2022-08-12T17:34:33.572Z,32.50
2022-08-12T17:37:05.543Z,32.50
2022-08-12T17:40:12.799Z,32.40
2022-08-12T17:42:32.840Z,32.30
2022-08-12T17:45:17.539Z,32.30
2022-08-12T17:48:01.092Z,32.20
2022-08-12T17:50:32.326Z,32.20
2022-08-12T17:53:03.079Z,32.20
2022-08-12T17:55:44.032Z,32.20
2022-08-12T17:58:16.585Z,32.20
2022-08-12T18:00:45.903Z,32.10
2022-08-12T18:03:58.085Z,32.00
2022-08-12T18:06:14.089Z,32.00
2022-08-12T18:08:54.591Z,31.90
2022-08-12T18:12:06.088Z,31.90
2022-08-12T18:14:30.313Z,31.80
2022-08-12T18:17:02.483Z,31.70
2022-08-12T18:19:48.550Z,31.60
2022-08-12T18:22:21.965Z,31.60
2022-08-12T18:25:02.389Z,31.50
2022-08-12T18:27:43.567Z,31.40
2022-08-12T18:30:20.625Z,31.30
2022-08-12T18:33:04.544Z,31.20
2022-08-12T18:35:47.503Z,31.10
2022-08-12T18:38:22.075Z,31.00
2022-08-12T18:41:09.811Z,30.90
2022-08-12T18:43:58.826Z,30.80
2022-08-12T18:46:46.913Z,30.70
2022-08-12T18:49:20.023Z,30.60
2022-08-12T18:51:55.189Z,30.50
2022-08-12T18:54:32.284Z,30.50
2022-08-12T18:57:03.808Z,30.40
2022-08-12T19:00:01.925Z,30.30
2022-08-12T19:02:23.218Z,30.20
2022-08-12T19:04:53.342Z,30.10
2022-08-12T19:07:25.526Z,30.00
2022-08-12T19:10:00.122Z,30.00
2022-08-12T19:12:56.948Z,29.90
2022-08-12T19:15:26.621Z,29.80
2022-08-12T19:18:00.952Z,29.70
2022-08-12T19:20:32.890Z,29.60
2022-08-12T19:23:07.943Z,29.50
2022-08-12T19:25:59.304Z,29.40
2022-08-12T19:28:34.723Z,29.30
2022-08-12T19:31:55.733Z,29.30
2022-08-12T19:37:17.283Z,28.90
2022-08-12T19:40:09.317Z,28.90
2022-08-12T19:42:44.405Z,28.80
2022-08-12T19:45:15.665Z,28.70
2022-08-12T19:47:46.447Z,28.70
2022-08-12T19:50:20.299Z,28.60
2022-08-12T19:52:53.465Z,28.60
2022-08-12T19:55:27.289Z,28.50
2022-08-12T19:58:01.745Z,28.40
2022-08-12T20:00:35.052Z,28.30
2022-08-12T20:03:05.282Z,28.20
2022-08-12T20:06:05.076Z,28.20
2022-08-12T20:08:31.422Z,28.10
2022-08-12T20:12:12.969Z,28.10
2022-08-12T20:14:01.734Z,28.00
2022-08-12T20:19:52.187Z,27.90
2022-08-12T20:22:24.160Z,27.80
2022-08-12T20:25:12.406Z,27.70
2022-08-12T20:28:04.525Z,27.60
2022-08-12T20:30:37.260Z,27.60
2022-08-12T20:33:32.409Z,27.50
2022-08-12T20:36:40.013Z,27.50
2022-08-12T20:38:55.977Z,27.40
2022-08-12T20:41:25.264Z,27.30
2022-08-12T20:43:57.237Z,27.30
2022-08-12T20:46:31.594Z,27.20
2022-08-12T20:49:00.594Z,27.20
2022-08-12T20:51:55.155Z,27.20
2022-08-12T20:54:32.860Z,27.10
2022-08-12T20:57:09.687Z,27.10
2022-08-12T20:59:47.779Z,27.00
2022-08-12T21:02:16.300Z,27.00
2022-08-12T21:05:16.220Z,26.90
2022-08-12T21:07:52.050Z,26.90
2022-08-12T21:10:21.383Z,26.80
2022-08-12T21:12:54.489Z,26.80
2022-08-12T21:15:53.448Z,26.80
2022-08-12T21:18:28.831Z,26.70
2022-08-12T21:20:59.112Z,26.60
2022-08-12T21:23:30.882Z,26.60
2022-08-12T21:26:06.094Z,26.50
2022-08-12T21:28:39.535Z,26.50
2022-08-12T21:32:35.440Z,26.50
2022-08-12T21:34:08.936Z,26.40
2022-08-12T21:36:39.533Z,26.40
2022-08-12T21:39:18.987Z,26.30
2022-08-12T21:41:50.986Z,26.30
2022-08-12T21:44:24.442Z,26.20
2022-08-12T21:47:12.068Z,26.20
2022-08-12T21:50:02.300Z,26.10
2022-08-12T21:52:34.223Z,26.10
2022-08-12T21:55:02.413Z,26.10
2022-08-12T21:57:36.206Z,26.00
2022-08-12T22:00:19.023Z,26.00
2022-08-12T22:03:05.942Z,26.00
2022-08-12T22:05:53.409Z,25.90
2022-08-12T22:08:22.407Z,25.80
2022-08-12T22:10:56.480Z,25.80
2022-08-12T22:14:07.061Z,25.80
2022-08-12T22:16:14.377Z,25.80
2022-08-12T22:18:50.410Z,25.70
2022-08-12T22:21:22.187Z,25.70
2022-08-12T22:24:05.157Z,25.60
2022-08-12T22:26:37.476Z,25.60
2022-08-12T22:29:24.052Z,25.60
2022-08-12T22:31:55.679Z,25.50
2022-08-12T22:34:33.154Z,25.50
2022-08-12T22:37:02.654Z,25.50
2022-08-12T22:39:31.562Z,25.40
2022-08-12T22:42:20.051Z,25.40
2022-08-12T22:45:05.857Z,25.40
2022-08-12T22:47:55.441Z,25.30
2022-08-12T22:50:28.700Z,25.30
2022-08-12T22:53:15.571Z,25.30
2022-08-12T22:56:00.913Z,25.20
2022-08-12T22:58:35.296Z,25.20
2022-08-12T23:01:04.020Z,25.10
2022-08-12T23:03:49.086Z,25.10
2022-08-12T23:06:21.402Z,25.10
2022-08-12T23:08:49.857Z,25.10
2022-08-12T23:11:23.702Z,25.00
2022-08-12T23:13:56.870Z,25.00
2022-08-12T23:16:30.971Z,25.00
2022-08-12T23:19:09.533Z,25.00
2022-08-12T23:22:05.037Z,24.90
2022-08-12T23:24:32.605Z,24.90
2022-08-12T23:27:21.416Z,24.90
2022-08-12T23:30:17.402Z,24.90
2022-08-12T23:32:38.272Z,24.80
2022-08-12T23:35:08.074Z,24.80
2022-08-12T23:37:46.655Z,24.70
2022-08-12T23:40:21.992Z,24.70
2022-08-12T23:42:50.673Z,24.70
2022-08-12T23:45:30.723Z,24.70
2022-08-12T23:48:00.475Z,24.60
2022-08-12T23:50:33.896Z,24.60
2022-08-12T23:53:16.916Z,24.60
2022-08-12T23:55:54.772Z,24.60
2022-08-12T23:58:26.479Z,24.50
